TimeCST,TemperatureF,Dew PointF,Humidity,Sea Level PressureIn,VisibilityMPH,Wind Direction,Wind SpeedMPH,Gust SpeedMPH,PrecipitationIn,Events,Conditions,WindDirDegrees,DateUTC
12:53 AM,24.1,17.1,75,30.18,10.0,NNW,15.0,-,N/A,,Clear,330,2013-02-19 06:53:00
1:53 AM,23.0,14.0,68,30.19,10.0,NNW,18.4,-,N/A,,Clear,330,2013-02-19 07:53:00
2:53 AM,19.9,14.0,78,30.22,10.0,NNW,11.5,-,N/A,,Clear,330,2013-02-19 08:53:00
3:53 AM,18.0,12.9,81,30.22,10.0,WNW,8.1,-,N/A,,Clear,300,2013-02-19 09:53:00
4:53 AM,18.0,12.0,78,30.24,10.0,NW,12.7,-,N/A,,Clear,320,2013-02-19 10:53:00
5:53 AM,17.1,12.0,81,30.27,10.0,NNW,13.8,-,N/A,,Clear,330,2013-02-19 11:53:00
6:53 AM,16.0,10.9,81,30.30,10.0,NW,9.2,-,N/A,,Clear,320,2013-02-19 12:53:00
7:53 AM,16.0,10.9,81,30.33,10.0,NNW,9.2,-,N/A,,Clear,330,2013-02-19 13:53:00
8:53 AM,18.0,12.0,78,30.36,10.0,NNW,13.8,-,N/A,,Clear,330,2013-02-19 14:53:00
9:53 AM,19.9,12.0,71,30.38,10.0,NNW,17.3,-,N/A,,Partly Cloudy,340,2013-02-19 15:53:00
10:53 AM,21.9,10.9,63,30.38,10.0,North,12.7,20.7,N/A,,Clear,360,2013-02-19 16:53:00
12:53 PM,27.0,5.0,39,30.36,10.0,North,12.7,-,N/A,,Clear,350,2013-02-19 18:53:00
1:53 PM,28.0,3.9,36,30.34,10.0,East,4.6,-,N/A,,Clear,80,2013-02-19 19:53:00
2:53 PM,30.0,1.9,30,30.32,10.0,NE,3.5,-,N/A,,Clear,40,2013-02-19 20:53:00
3:53 PM,30.9,1.9,29,30.31,10.0,Variable,3.5,-,N/A,,Clear,0,2013-02-19 21:53:00
4:53 PM,30.0,-0.0,28,30.31,10.0,ENE,5.8,-,N/A,,Clear,60,2013-02-19 22:53:00
6:53 PM,23.0,1.9,40,30.31,10.0,ENE,8.1,-,N/A,,Clear,70,2013-02-20 00:53:00
7:53 PM,21.0,1.9,44,30.33,10.0,East,6.9,-,N/A,,Clear,100,2013-02-20 01:53:00
8:53 PM,19.0,1.9,47,30.35,10.0,East,6.9,-,N/A,,Clear,80,2013-02-20 02:53:00
9:53 PM,18.0,3.0,52,30.35,10.0,East,9.2,-,N/A,,Clear,80,2013-02-20 03:53:00
10:53 PM,17.1,1.9,52,30.37,10.0,East,6.9,-,N/A,,Clear,80,2013-02-20 04:53:00
11:53 PM,16.0,3.0,57,30.36,10.0,East,9.2,-,N/A,,Clear,80,2013-02-20 05:53:00